KHBG/HBG METAR and TAF weather

Enter ICAO airport designator
Station Type Date Time Source
KHBG METAR 2019/12/08 03:53 UTC NOAA

KHBG 080353Z AUTO 00000KT 7SM CLR 09/08 A3021 RMK AO2 SLP228 T00940083


Station Type Date Time Source
KHBG Decoded METAR 2019/12/08 03:53 UTC NOAA

HATTIESBURG CHAIN MUNICIPAL, MS, United States (KHBG) 31-16N 89-15W 44M
Dec 07, 2019 - 10:53 PM EST / 2019.12.08 0353 UTC
Wind: Calm:0
Visibility: 7 mile(s):0
Sky conditions: clear
Temperature: 48.9 F (9.4 C)
Dew Point: 46.9 F (8.3 C)
Relative Humidity: 92%
Pressure (altimeter): 30.21 in. Hg (1023 hPa)
ob: KHBG 080353Z AUTO 00000KT 7SM CLR 09/08 A3021 RMK AO2 SLP228 T00940083
cycle: 4

Station Type Date Time Source
KHBG TAF 2019/12/07 18:48 UTC NOAA

TAF KHBG 071740Z 0718/0818 02006KT P6SM BKN017 OVC025
FM072300 02003KT P6SM SCT025
FM080100 01003KT P6SM OVC025
FM080700 00000KT P6SM OVC015

Example: see airport list